sensor_id;sensor_type;location;lat;lon;timestamp;P1;durP1;ratioP1;P2;durP2;ratioP2
71303;SDS011;59091;47.446;19.148;2023-07-31T00:00:50;2.53;;;2.30;;
71303;SDS011;59091;47.446;19.148;2023-07-31T00:03:16;2.90;;;2.58;;
71303;SDS011;59091;47.446;19.148;2023-07-31T00:05:41;3.53;;;3.20;;
71303;SDS011;59091;47.446;19.148;2023-07-31T00:08:06;2.42;;;2.22;;
71303;SDS011;59091;47.446;19.148;2023-07-31T00:10:32;5.35;;;2.30;;
71303;SDS011;59091;47.446;19.148;2023-07-31T00:12:58;2.78;;;2.58;;
71303;SDS011;59091;47.446;19.148;2023-07-31T00:15:24;3.30;;;2.30;;
71303;SDS011;59091;47.446;19.148;2023-07-31T00:17:49;3.33;;;2.50;;
71303;SDS011;59091;47.446;19.148;2023-07-31T00:20:15;2.83;;;2.63;;
71303;SDS011;59091;47.446;19.148;2023-07-31T00:22:40;2.75;;;2.42;;
71303;SDS011;59091;47.446;19.148;2023-07-31T00:25:06;5.97;;;2.60;;
71303;SDS011;59091;47.446;19.148;2023-07-31T00:27:32;2.50;;;2.30;;
71303;SDS011;59091;47.446;19.148;2023-07-31T00:29:57;2.67;;;2.47;;
71303;SDS011;59091;47.446;19.148;2023-07-31T00:32:23;3.55;;;2.45;;
71303;SDS011;59091;47.446;19.148;2023-07-31T00:34:48;2.30;;;2.10;;
71303;SDS011;59091;47.446;19.148;2023-07-31T00:37:14;3.03;;;2.55;;
71303;SDS011;59091;47.446;19.148;2023-07-31T00:39:40;2.30;;;2.20;;
71303;SDS011;59091;47.446;19.148;2023-07-31T00:42:06;2.70;;;2.50;;
71303;SDS011;59091;47.446;19.148;2023-07-31T00:44:31;3.45;;;2.30;;
71303;SDS011;59091;47.446;19.148;2023-07-31T00:46:57;2.70;;;2.22;;
71303;SDS011;59091;47.446;19.148;2023-07-31T00:49:24;2.90;;;2.50;;
71303;SDS011;59091;47.446;19.148;2023-07-31T00:51:50;2.92;;;2.65;;
71303;SDS011;59091;47.446;19.148;2023-07-31T00:54:15;3.20;;;2.60;;
71303;SDS011;59091;47.446;19.148;2023-07-31T00:56:41;2.85;;;2.58;;
71303;SDS011;59091;47.446;19.148;2023-07-31T00:59:09;2.53;;;2.28;;
71303;SDS011;59091;47.446;19.148;2023-07-31T01:01:35;2.90;;;2.70;;
71303;SDS011;59091;47.446;19.148;2023-07-31T01:04:00;4.68;;;2.50;;
71303;SDS011;59091;47.446;19.148;2023-07-31T01:11:57;2.63;;;2.40;;
71303;SDS011;59091;47.446;19.148;2023-07-31T01:14:25;3.63;;;2.20;;
71303;SDS011;59091;47.446;19.148;2023-07-31T01:16:50;4.28;;;2.80;;
71303;SDS011;59091;47.446;19.148;2023-07-31T01:19:17;2.50;;;2.30;;
71303;SDS011;59091;47.446;19.148;2023-07-31T01:21:56;2.78;;;2.58;;
71303;SDS011;59091;47.446;19.148;2023-07-31T01:24:30;2.95;;;2.53;;
71303;SDS011;59091;47.446;19.148;2023-07-31T01:27:12;4.50;;;2.53;;
71303;SDS011;59091;47.446;19.148;2023-07-31T01:30:05;3.30;;;2.55;;
71303;SDS011;59091;47.446;19.148;2023-07-31T01:32:39;2.35;;;2.20;;
71303;SDS011;59091;47.446;19.148;2023-07-31T01:35:07;3.13;;;2.60;;
71303;SDS011;59091;47.446;19.148;2023-07-31T01:37:33;4.32;;;3.05;;
71303;SDS011;59091;47.446;19.148;2023-07-31T01:39:59;4.15;;;2.53;;
71303;SDS011;59091;47.446;19.148;2023-07-31T01:42:24;2.50;;;2.30;;
71303;SDS011;59091;47.446;19.148;2023-07-31T01:44:50;3.58;;;2.53;;
71303;SDS011;59091;47.446;19.148;2023-07-31T01:47:15;3.25;;;2.70;;
71303;SDS011;59091;47.446;19.148;2023-07-31T01:49:40;3.30;;;3.00;;
71303;SDS011;59091;47.446;19.148;2023-07-31T01:52:06;3.28;;;2.90;;
71303;SDS011;59091;47.446;19.148;2023-07-31T01:54:32;3.05;;;2.75;;
71303;SDS011;59091;47.446;19.148;2023-07-31T01:56:58;3.63;;;2.97;;
71303;SDS011;59091;47.446;19.148;2023-07-31T01:59:24;3.30;;;3.00;;
71303;SDS011;59091;47.446;19.148;2023-07-31T02:01:49;3.65;;;3.35;;
71303;SDS011;59091;47.446;19.148;2023-07-31T02:04:14;3.03;;;2.72;;
71303;SDS011;59091;47.446;19.148;2023-07-31T02:06:40;3.30;;;2.78;;
71303;SDS011;59091;47.446;19.148;2023-07-31T02:09:05;3.28;;;2.97;;
71303;SDS011;59091;47.446;19.148;2023-07-31T02:11:31;4.15;;;2.75;;
71303;SDS011;59091;47.446;19.148;2023-07-31T02:13:56;3.17;;;2.83;;
71303;SDS011;59091;47.446;19.148;2023-07-31T02:16:22;3.88;;;3.00;;
71303;SDS011;59091;47.446;19.148;2023-07-31T02:18:47;3.92;;;2.88;;
71303;SDS011;59091;47.446;19.148;2023-07-31T02:21:13;3.03;;;2.83;;
71303;SDS011;59091;47.446;19.148;2023-07-31T02:23:38;3.30;;;3.10;;
71303;SDS011;59091;47.446;19.148;2023-07-31T02:26:03;4.22;;;2.78;;
71303;SDS011;59091;47.446;19.148;2023-07-31T02:28:29;3.58;;;3.00;;
71303;SDS011;59091;47.446;19.148;2023-07-31T02:30:55;3.03;;;2.72;;
71303;SDS011;59091;47.446;19.148;2023-07-31T02:33:20;3.40;;;2.88;;
71303;SDS011;59091;47.446;19.148;2023-07-31T02:35:46;3.15;;;2.90;;
71303;SDS011;59091;47.446;19.148;2023-07-31T02:38:11;4.95;;;3.10;;
71303;SDS011;59091;47.446;19.148;2023-07-31T02:40:36;4.00;;;2.88;;
71303;SDS011;59091;47.446;19.148;2023-07-31T02:43:02;3.92;;;2.92;;
71303;SDS011;59091;47.446;19.148;2023-07-31T02:45:27;7.97;;;3.67;;
71303;SDS011;59091;47.446;19.148;2023-07-31T02:47:53;4.97;;;3.00;;
71303;SDS011;59091;47.446;19.148;2023-07-31T02:50:18;2.85;;;2.47;;
71303;SDS011;59091;47.446;19.148;2023-07-31T02:52:43;3.35;;;2.60;;
71303;SDS011;59091;47.446;19.148;2023-07-31T02:55:09;2.80;;;2.60;;
71303;SDS011;59091;47.446;19.148;2023-07-31T02:57:35;4.72;;;2.80;;
71303;SDS011;59091;47.446;19.148;2023-07-31T03:00:01;3.30;;;2.65;;
71303;SDS011;59091;47.446;19.148;2023-07-31T03:02:30;2.45;;;2.20;;
71303;SDS011;59091;47.446;19.148;2023-07-31T03:04:56;3.17;;;2.42;;
71303;SDS011;59091;47.446;19.148;2023-07-31T03:07:21;2.75;;;2.50;;
71303;SDS011;59091;47.446;19.148;2023-07-31T03:09:46;2.97;;;2.67;;
71303;SDS011;59091;47.446;19.148;2023-07-31T03:12:12;3.08;;;2.78;;
71303;SDS011;59091;47.446;19.148;2023-07-31T03:14:37;2.50;;;2.13;;
71303;SDS011;59091;47.446;19.148;2023-07-31T03:17:03;3.42;;;2.90;;
71303;SDS011;59091;47.446;19.148;2023-07-31T03:19:30;3.50;;;2.50;;
71303;SDS011;59091;47.446;19.148;2023-07-31T03:21:56;2.85;;;2.60;;
71303;SDS011;59091;47.446;19.148;2023-07-31T03:24:22;3.60;;;2.30;;
71303;SDS011;59091;47.446;19.148;2023-07-31T03:26:47;3.25;;;2.20;;
71303;SDS011;59091;47.446;19.148;2023-07-31T03:29:13;2.10;;;2.00;;
71303;SDS011;59091;47.446;19.148;2023-07-31T03:31:38;3.85;;;2.28;;
71303;SDS011;59091;47.446;19.148;2023-07-31T03:34:03;2.92;;;2.30;;
71303;SDS011;59091;47.446;19.148;2023-07-31T03:36:29;5.82;;;2.28;;
71303;SDS011;59091;47.446;19.148;2023-07-31T03:38:54;7.60;;;2.40;;
71303;SDS011;59091;47.446;19.148;2023-07-31T03:41:20;2.67;;;2.20;;
71303;SDS011;59091;47.446;19.148;2023-07-31T03:43:49;4.70;;;2.50;;
71303;SDS011;59091;47.446;19.148;2023-07-31T03:46:17;3.55;;;2.65;;
71303;SDS011;59091;47.446;19.148;2023-07-31T03:48:42;3.95;;;2.30;;
71303;SDS011;59091;47.446;19.148;2023-07-31T03:51:08;3.88;;;2.40;;
71303;SDS011;59091;47.446;19.148;2023-07-31T03:53:33;4.43;;;2.40;;
71303;SDS011;59091;47.446;19.148;2023-07-31T03:55:59;2.05;;;1.95;;
71303;SDS011;59091;47.446;19.148;2023-07-31T03:58:24;2.90;;;2.20;;
71303;SDS011;59091;47.446;19.148;2023-07-31T04:00:49;2.47;;;2.28;;
71303;SDS011;59091;47.446;19.148;2023-07-31T04:03:15;2.40;;;2.20;;
71303;SDS011;59091;47.446;19.148;2023-07-31T04:05:40;3.40;;;2.00;;
71303;SDS011;59091;47.446;19.148;2023-07-31T04:08:06;5.90;;;2.00;;
71303;SDS011;59091;47.446;19.148;2023-07-31T04:10:31;6.03;;;1.95;;
71303;SDS011;59091;47.446;19.148;2023-07-31T04:12:58;5.55;;;2.20;;
71303;SDS011;59091;47.446;19.148;2023-07-31T04:15:24;5.10;;;2.17;;
71303;SDS011;59091;47.446;19.148;2023-07-31T04:17:49;4.07;;;2.00;;
71303;SDS011;59091;47.446;19.148;2023-07-31T04:20:15;2.15;;;1.80;;
71303;SDS011;59091;47.446;19.148;2023-07-31T04:22:40;2.38;;;2.10;;
71303;SDS011;59091;47.446;19.148;2023-07-31T04:25:06;2.25;;;2.05;;
71303;SDS011;59091;47.446;19.148;2023-07-31T04:27:31;4.80;;;2.05;;
71303;SDS011;59091;47.446;19.148;2023-07-31T04:29:57;2.50;;;2.03;;
71303;SDS011;59091;47.446;19.148;2023-07-31T04:32:22;5.63;;;2.00;;
71303;SDS011;59091;47.446;19.148;2023-07-31T04:34:48;6.03;;;2.05;;
71303;SDS011;59091;47.446;19.148;2023-07-31T04:37:13;2.90;;;1.90;;
71303;SDS011;59091;47.446;19.148;2023-07-31T04:39:39;5.80;;;2.40;;
71303;SDS011;59091;47.446;19.148;2023-07-31T04:42:05;2.17;;;1.98;;
71303;SDS011;59091;47.446;19.148;2023-07-31T04:44:30;2.80;;;2.03;;
71303;SDS011;59091;47.446;19.148;2023-07-31T04:46:55;1.85;;;1.65;;
71303;SDS011;59091;47.446;19.148;2023-07-31T04:49:21;2.15;;;1.75;;
71303;SDS011;59091;47.446;19.148;2023-07-31T04:51:47;5.18;;;2.08;;
71303;SDS011;59091;47.446;19.148;2023-07-31T04:54:12;2.17;;;1.73;;
71303;SDS011;59091;47.446;19.148;2023-07-31T04:56:40;24.33;;;5.43;;
71303;SDS011;59091;47.446;19.148;2023-07-31T04:59:06;25.20;;;5.25;;
71303;SDS011;59091;47.446;19.148;2023-07-31T05:01:31;7.00;;;2.25;;
71303;SDS011;59091;47.446;19.148;2023-07-31T05:03:57;5.68;;;2.40;;
71303;SDS011;59091;47.446;19.148;2023-07-31T05:06:22;1.75;;;1.63;;
71303;SDS011;59091;47.446;19.148;2023-07-31T05:08:48;1.48;;;1.38;;
71303;SDS011;59091;47.446;19.148;2023-07-31T05:11:13;2.33;;;1.67;;
71303;SDS011;59091;47.446;19.148;2023-07-31T05:13:38;4.65;;;1.60;;
71303;SDS011;59091;47.446;19.148;2023-07-31T05:16:04;3.03;;;1.50;;
71303;SDS011;59091;47.446;19.148;2023-07-31T05:18:29;3.85;;;1.80;;
71303;SDS011;59091;47.446;19.148;2023-07-31T05:20:55;6.32;;;1.65;;
71303;SDS011;59091;47.446;19.148;2023-07-31T05:23:20;8.38;;;1.63;;
71303;SDS011;59091;47.446;19.148;2023-07-31T05:25:46;6.35;;;1.55;;
71303;SDS011;59091;47.446;19.148;2023-07-31T05:28:12;8.93;;;2.25;;
71303;SDS011;59091;47.446;19.148;2023-07-31T05:30:38;3.35;;;1.60;;
71303;SDS011;59091;47.446;19.148;2023-07-31T05:33:03;7.10;;;2.13;;
71303;SDS011;59091;47.446;19.148;2023-07-31T05:35:29;4.43;;;1.55;;
71303;SDS011;59091;47.446;19.148;2023-07-31T05:37:54;2.78;;;1.63;;
71303;SDS011;59091;47.446;19.148;2023-07-31T05:40:20;1.60;;;1.50;;
71303;SDS011;59091;47.446;19.148;2023-07-31T05:42:45;1.70;;;1.30;;
71303;SDS011;59091;47.446;19.148;2023-07-31T05:45:10;2.95;;;1.60;;
71303;SDS011;59091;47.446;19.148;2023-07-31T05:47:36;3.65;;;1.38;;
71303;SDS011;59091;47.446;19.148;2023-07-31T05:50:01;4.13;;;1.70;;
71303;SDS011;59091;47.446;19.148;2023-07-31T05:52:27;3.80;;;1.50;;
71303;SDS011;59091;47.446;19.148;2023-07-31T05:54:54;3.75;;;1.50;;
71303;SDS011;59091;47.446;19.148;2023-07-31T05:57:19;3.05;;;1.65;;
71303;SDS011;59091;47.446;19.148;2023-07-31T05:59:45;4.32;;;1.50;;
71303;SDS011;59091;47.446;19.148;2023-07-31T06:02:11;1.73;;;1.50;;
71303;SDS011;59091;47.446;19.148;2023-07-31T06:04:36;2.25;;;1.30;;
71303;SDS011;59091;47.446;19.148;2023-07-31T06:07:01;3.05;;;1.35;;
71303;SDS011;59091;47.446;19.148;2023-07-31T06:09:28;3.03;;;1.45;;
71303;SDS011;59091;47.446;19.148;2023-07-31T06:11:53;3.88;;;1.52;;
71303;SDS011;59091;47.446;19.148;2023-07-31T06:14:19;3.13;;;1.40;;
71303;SDS011;59091;47.446;19.148;2023-07-31T06:16:44;3.67;;;1.85;;
71303;SDS011;59091;47.446;19.148;2023-07-31T06:19:10;1.42;;;1.33;;
71303;SDS011;59091;47.446;19.148;2023-07-31T06:21:36;4.47;;;1.48;;
71303;SDS011;59091;47.446;19.148;2023-07-31T06:24:07;4.75;;;1.25;;
71303;SDS011;59091;47.446;19.148;2023-07-31T06:26:32;3.97;;;1.45;;
71303;SDS011;59091;47.446;19.148;2023-07-31T06:28:57;5.75;;;1.70;;
71303;SDS011;59091;47.446;19.148;2023-07-31T06:31:23;6.80;;;1.80;;
71303;SDS011;59091;47.446;19.148;2023-07-31T06:33:49;2.67;;;1.38;;
71303;SDS011;59091;47.446;19.148;2023-07-31T06:36:15;1.45;;;1.35;;
71303;SDS011;59091;47.446;19.148;2023-07-31T06:38:41;4.40;;;1.40;;
71303;SDS011;59091;47.446;19.148;2023-07-31T06:41:06;1.83;;;1.40;;
71303;SDS011;59091;47.446;19.148;2023-07-31T06:43:32;2.05;;;1.55;;
71303;SDS011;59091;47.446;19.148;2023-07-31T06:45:57;1.73;;;1.35;;
71303;SDS011;59091;47.446;19.148;2023-07-31T06:48:25;2.78;;;1.48;;
71303;SDS011;59091;47.446;19.148;2023-07-31T06:50:52;2.88;;;1.40;;
71303;SDS011;59091;47.446;19.148;2023-07-31T06:53:18;5.13;;;1.60;;
71303;SDS011;59091;47.446;19.148;2023-07-31T06:55:43;1.55;;;1.30;;
71303;SDS011;59091;47.446;19.148;2023-07-31T06:58:09;3.92;;;1.45;;
71303;SDS011;59091;47.446;19.148;2023-07-31T07:00:34;2.53;;;1.40;;
71303;SDS011;59091;47.446;19.148;2023-07-31T07:03:00;1.60;;;1.50;;
71303;SDS011;59091;47.446;19.148;2023-07-31T07:05:25;1.40;;;1.30;;
71303;SDS011;59091;47.446;19.148;2023-07-31T07:07:50;4.38;;;1.50;;
71303;SDS011;59091;47.446;19.148;2023-07-31T07:10:17;1.40;;;1.30;;
71303;SDS011;59091;47.446;19.148;2023-07-31T07:12:42;1.65;;;1.45;;
71303;SDS011;59091;47.446;19.148;2023-07-31T07:15:08;6.00;;;1.67;;
71303;SDS011;59091;47.446;19.148;2023-07-31T07:17:33;5.07;;;1.70;;
71303;SDS011;59091;47.446;19.148;2023-07-31T07:19:59;2.65;;;1.38;;
71303;SDS011;59091;47.446;19.148;2023-07-31T07:22:26;2.03;;;1.80;;
71303;SDS011;59091;47.446;19.148;2023-07-31T07:24:52;8.77;;;1.95;;
71303;SDS011;59091;47.446;19.148;2023-07-31T07:27:17;3.63;;;1.50;;
71303;SDS011;59091;47.446;19.148;2023-07-31T07:29:43;1.67;;;1.38;;
71303;SDS011;59091;47.446;19.148;2023-07-31T07:32:08;2.13;;;1.30;;
71303;SDS011;59091;47.446;19.148;2023-07-31T07:34:34;2.60;;;1.70;;
71303;SDS011;59091;47.446;19.148;2023-07-31T07:37:00;2.63;;;1.60;;
71303;SDS011;59091;47.446;19.148;2023-07-31T07:39:25;1.60;;;1.50;;
71303;SDS011;59091;47.446;19.148;2023-07-31T07:41:51;4.47;;;1.40;;
71303;SDS011;59091;47.446;19.148;2023-07-31T07:44:18;6.63;;;1.52;;
71303;SDS011;59091;47.446;19.148;2023-07-31T07:46:43;3.47;;;1.50;;
71303;SDS011;59091;47.446;19.148;2023-07-31T07:49:09;4.50;;;1.67;;
71303;SDS011;59091;47.446;19.148;2023-07-31T07:51:34;3.80;;;1.60;;
71303;SDS011;59091;47.446;19.148;2023-07-31T07:54:00;4.57;;;1.50;;
71303;SDS011;59091;47.446;19.148;2023-07-31T07:56:26;2.67;;;1.60;;
71303;SDS011;59091;47.446;19.148;2023-07-31T07:58:52;5.35;;;1.75;;
71303;SDS011;59091;47.446;19.148;2023-07-31T08:01:18;2.53;;;1.50;;
71303;SDS011;59091;47.446;19.148;2023-07-31T08:03:44;5.88;;;2.17;;
71303;SDS011;59091;47.446;19.148;2023-07-31T08:06:09;3.25;;;1.50;;
71303;SDS011;59091;47.446;19.148;2023-07-31T08:08:35;5.97;;;1.42;;
71303;SDS011;59091;47.446;19.148;2023-07-31T08:11:01;2.65;;;1.40;;
71303;SDS011;59091;47.446;19.148;2023-07-31T08:13:27;2.33;;;1.15;;
71303;SDS011;59091;47.446;19.148;2023-07-31T08:15:52;3.67;;;1.63;;
71303;SDS011;59091;47.446;19.148;2023-07-31T08:18:18;2.58;;;1.40;;
71303;SDS011;59091;47.446;19.148;2023-07-31T08:20:44;5.35;;;1.75;;
71303;SDS011;59091;47.446;19.148;2023-07-31T08:23:09;4.28;;;1.45;;
71303;SDS011;59091;47.446;19.148;2023-07-31T08:25:35;3.17;;;1.50;;
71303;SDS011;59091;47.446;19.148;2023-07-31T08:28:01;2.10;;;1.50;;
71303;SDS011;59091;47.446;19.148;2023-07-31T08:30:27;2.90;;;1.65;;
71303;SDS011;59091;47.446;19.148;2023-07-31T08:32:53;2.45;;;1.30;;
71303;SDS011;59091;47.446;19.148;2023-07-31T08:35:18;7.22;;;1.40;;
71303;SDS011;59091;47.446;19.148;2023-07-31T08:37:44;1.50;;;1.40;;
71303;SDS011;59091;47.446;19.148;2023-07-31T08:40:09;6.03;;;1.60;;
71303;SDS011;59091;47.446;19.148;2023-07-31T08:42:42;2.10;;;1.33;;
71303;SDS011;59091;47.446;19.148;2023-07-31T08:45:15;2.65;;;1.17;;
71303;SDS011;59091;47.446;19.148;2023-07-31T08:47:44;4.30;;;1.50;;
71303;SDS011;59091;47.446;19.148;2023-07-31T08:50:12;3.25;;;1.40;;
71303;SDS011;59091;47.446;19.148;2023-07-31T08:52:42;3.22;;;1.30;;
71303;SDS011;59091;47.446;19.148;2023-07-31T08:55:07;2.90;;;1.60;;
71303;SDS011;59091;47.446;19.148;2023-07-31T08:57:34;8.27;;;1.48;;
71303;SDS011;59091;47.446;19.148;2023-07-31T09:00:02;6.38;;;1.42;;
71303;SDS011;59091;47.446;19.148;2023-07-31T09:05:19;1.67;;;1.30;;
71303;SDS011;59091;47.446;19.148;2023-07-31T09:07:47;3.03;;;1.67;;
71303;SDS011;59091;47.446;19.148;2023-07-31T09:10:13;5.43;;;1.42;;
71303;SDS011;59091;47.446;19.148;2023-07-31T09:12:39;4.50;;;1.30;;
71303;SDS011;59091;47.446;19.148;2023-07-31T09:15:04;2.75;;;1.33;;
71303;SDS011;59091;47.446;19.148;2023-07-31T09:17:34;2.58;;;1.20;;
71303;SDS011;59091;47.446;19.148;2023-07-31T09:20:22;5.68;;;1.55;;
71303;SDS011;59091;47.446;19.148;2023-07-31T09:22:48;2.00;;;1.30;;
71303;SDS011;59091;47.446;19.148;2023-07-31T09:25:17;4.10;;;1.33;;
71303;SDS011;59091;47.446;19.148;2023-07-31T09:30:23;7.90;;;1.40;;
71303;SDS011;59091;47.446;19.148;2023-07-31T09:32:49;6.13;;;1.55;;
71303;SDS011;59091;47.446;19.148;2023-07-31T09:35:22;3.72;;;1.40;;
71303;SDS011;59091;47.446;19.148;2023-07-31T09:37:53;2.13;;;1.40;;
71303;SDS011;59091;47.446;19.148;2023-07-31T09:40:25;2.85;;;1.40;;
71303;SDS011;59091;47.446;19.148;2023-07-31T09:43:01;1.70;;;1.33;;
71303;SDS011;59091;47.446;19.148;2023-07-31T09:45:27;2.75;;;1.30;;
71303;SDS011;59091;47.446;19.148;2023-07-31T09:47:53;6.70;;;1.48;;
71303;SDS011;59091;47.446;19.148;2023-07-31T09:50:21;2.90;;;1.10;;
71303;SDS011;59091;47.446;19.148;2023-07-31T09:52:48;2.88;;;1.60;;
71303;SDS011;59091;47.446;19.148;2023-07-31T09:55:13;3.05;;;1.42;;
71303;SDS011;59091;47.446;19.148;2023-07-31T09:57:39;3.20;;;1.40;;
71303;SDS011;59091;47.446;19.148;2023-07-31T10:00:09;1.83;;;1.25;;
71303;SDS011;59091;47.446;19.148;2023-07-31T10:02:36;2.97;;;1.40;;
71303;SDS011;59091;47.446;19.148;2023-07-31T10:05:02;11.18;;;1.50;;
71303;SDS011;59091;47.446;19.148;2023-07-31T10:07:30;2.00;;;1.20;;
71303;SDS011;59091;47.446;19.148;2023-07-31T10:09:59;4.55;;;1.67;;
71303;SDS011;59091;47.446;19.148;2023-07-31T10:12:26;2.50;;;1.40;;
71303;SDS011;59091;47.446;19.148;2023-07-31T10:14:55;4.20;;;1.75;;
71303;SDS011;59091;47.446;19.148;2023-07-31T10:17:24;5.10;;;1.60;;
71303;SDS011;59091;47.446;19.148;2023-07-31T10:19:50;4.80;;;1.42;;
71303;SDS011;59091;47.446;19.148;2023-07-31T10:22:16;2.25;;;1.20;;
71303;SDS011;59091;47.446;19.148;2023-07-31T10:24:43;2.80;;;1.67;;
71303;SDS011;59091;47.446;19.148;2023-07-31T10:27:10;4.90;;;1.55;;
71303;SDS011;59091;47.446;19.148;2023-07-31T10:29:39;1.67;;;1.33;;
71303;SDS011;59091;47.446;19.148;2023-07-31T10:32:09;5.90;;;1.40;;
71303;SDS011;59091;47.446;19.148;2023-07-31T10:34:37;4.03;;;1.55;;
71303;SDS011;59091;47.446;19.148;2023-07-31T10:39:57;9.10;;;1.60;;
71303;SDS011;59091;47.446;19.148;2023-07-31T10:42:27;3.55;;;1.60;;
71303;SDS011;59091;47.446;19.148;2023-07-31T10:44:56;2.95;;;1.38;;
71303;SDS011;59091;47.446;19.148;2023-07-31T10:47:23;5.57;;;1.38;;
71303;SDS011;59091;47.446;19.148;2023-07-31T10:49:49;2.80;;;1.23;;
71303;SDS011;59091;47.446;19.148;2023-07-31T10:52:15;2.88;;;1.50;;
71303;SDS011;59091;47.446;19.148;2023-07-31T10:54:48;3.38;;;1.33;;
71303;SDS011;59091;47.446;19.148;2023-07-31T10:57:21;5.15;;;1.35;;
71303;SDS011;59091;47.446;19.148;2023-07-31T10:59:48;4.30;;;1.40;;
71303;SDS011;59091;47.446;19.148;2023-07-31T11:02:24;1.67;;;1.33;;
71303;SDS011;59091;47.446;19.148;2023-07-31T11:05:08;7.38;;;1.80;;
71303;SDS011;59091;47.446;19.148;2023-07-31T11:08:07;2.22;;;1.40;;
71303;SDS011;59091;47.446;19.148;2023-07-31T11:10:25;2.92;;;1.48;;
71303;SDS011;59091;47.446;19.148;2023-07-31T11:12:51;6.63;;;1.70;;
71303;SDS011;59091;47.446;19.148;2023-07-31T11:15:16;3.55;;;1.30;;
71303;SDS011;59091;47.446;19.148;2023-07-31T11:17:42;4.15;;;1.42;;
71303;SDS011;59091;47.446;19.148;2023-07-31T11:20:07;3.17;;;1.40;;
71303;SDS011;59091;47.446;19.148;2023-07-31T11:22:36;4.93;;;1.50;;
71303;SDS011;59091;47.446;19.148;2023-07-31T11:25:05;2.67;;;1.40;;
71303;SDS011;59091;47.446;19.148;2023-07-31T11:27:30;3.50;;;1.52;;
71303;SDS011;59091;47.446;19.148;2023-07-31T11:30:02;3.88;;;1.50;;
71303;SDS011;59091;47.446;19.148;2023-07-31T11:32:28;4.22;;;1.20;;
71303;SDS011;59091;47.446;19.148;2023-07-31T11:34:53;5.88;;;1.40;;
71303;SDS011;59091;47.446;19.148;2023-07-31T11:37:19;3.83;;;1.30;;
71303;SDS011;59091;47.446;19.148;2023-07-31T11:40:00;4.10;;;1.27;;
71303;SDS011;59091;47.446;19.148;2023-07-31T11:42:26;2.20;;;1.35;;
71303;SDS011;59091;47.446;19.148;2023-07-31T11:44:52;8.43;;;1.38;;
71303;SDS011;59091;47.446;19.148;2023-07-31T11:47:17;3.45;;;1.20;;
71303;SDS011;59091;47.446;19.148;2023-07-31T11:49:43;2.97;;;1.40;;
71303;SDS011;59091;47.446;19.148;2023-07-31T11:52:09;3.33;;;1.40;;
71303;SDS011;59091;47.446;19.148;2023-07-31T11:54:35;2.60;;;1.10;;
71303;SDS011;59091;47.446;19.148;2023-07-31T11:57:01;5.07;;;1.30;;
71303;SDS011;59091;47.446;19.148;2023-07-31T11:59:27;5.28;;;1.40;;
71303;SDS011;59091;47.446;19.148;2023-07-31T12:01:52;2.38;;;1.20;;
71303;SDS011;59091;47.446;19.148;2023-07-31T12:04:19;2.60;;;1.50;;
71303;SDS011;59091;47.446;19.148;2023-07-31T12:06:46;3.47;;;1.67;;
71303;SDS011;59091;47.446;19.148;2023-07-31T12:09:12;3.22;;;1.20;;
71303;SDS011;59091;47.446;19.148;2023-07-31T12:11:43;3.22;;;1.38;;
71303;SDS011;59091;47.446;19.148;2023-07-31T12:14:19;4.20;;;1.42;;
71303;SDS011;59091;47.446;19.148;2023-07-31T12:17:01;2.97;;;1.27;;
71303;SDS011;59091;47.446;19.148;2023-07-31T12:19:29;3.92;;;1.33;;
71303;SDS011;59091;47.446;19.148;2023-07-31T12:21:55;9.15;;;1.70;;
71303;SDS011;59091;47.446;19.148;2023-07-31T12:24:21;3.40;;;1.40;;
71303;SDS011;59091;47.446;19.148;2023-07-31T12:26:48;4.35;;;1.40;;
71303;SDS011;59091;47.446;19.148;2023-07-31T12:29:14;5.75;;;1.63;;
71303;SDS011;59091;47.446;19.148;2023-07-31T12:31:40;3.83;;;1.23;;
71303;SDS011;59091;47.446;19.148;2023-07-31T12:34:16;4.32;;;1.52;;
71303;SDS011;59091;47.446;19.148;2023-07-31T12:36:43;1.88;;;1.27;;
71303;SDS011;59091;47.446;19.148;2023-07-31T12:39:09;5.20;;;1.58;;
71303;SDS011;59091;47.446;19.148;2023-07-31T12:41:35;2.63;;;1.10;;
71303;SDS011;59091;47.446;19.148;2023-07-31T12:44:00;4.10;;;1.40;;
71303;SDS011;59091;47.446;19.148;2023-07-31T12:46:26;4.80;;;1.10;;
71303;SDS011;59091;47.446;19.148;2023-07-31T12:48:51;3.30;;;1.50;;
71303;SDS011;59091;47.446;19.148;2023-07-31T12:51:16;2.20;;;1.20;;
71303;SDS011;59091;47.446;19.148;2023-07-31T12:53:42;5.68;;;1.27;;
71303;SDS011;59091;47.446;19.148;2023-07-31T12:56:07;3.63;;;2.10;;
71303;SDS011;59091;47.446;19.148;2023-07-31T12:58:33;5.65;;;1.60;;
71303;SDS011;59091;47.446;19.148;2023-07-31T13:00:58;1.88;;;1.30;;
71303;SDS011;59091;47.446;19.148;2023-07-31T13:03:23;2.70;;;1.42;;
71303;SDS011;59091;47.446;19.148;2023-07-31T13:05:49;3.13;;;1.27;;
71303;SDS011;59091;47.446;19.148;2023-07-31T13:08:15;4.78;;;1.30;;
71303;SDS011;59091;47.446;19.148;2023-07-31T13:10:42;3.47;;;1.30;;
71303;SDS011;59091;47.446;19.148;2023-07-31T13:13:08;5.50;;;1.50;;
71303;SDS011;59091;47.446;19.148;2023-07-31T13:15:34;4.43;;;1.52;;
71303;SDS011;59091;47.446;19.148;2023-07-31T13:18:00;2.40;;;1.52;;
71303;SDS011;59091;47.446;19.148;2023-07-31T13:20:25;7.10;;;1.88;;
71303;SDS011;59091;47.446;19.148;2023-07-31T13:22:51;4.47;;;1.17;;
71303;SDS011;59091;47.446;19.148;2023-07-31T13:25:16;3.75;;;1.52;;
71303;SDS011;59091;47.446;19.148;2023-07-31T13:27:42;3.22;;;1.52;;
71303;SDS011;59091;47.446;19.148;2023-07-31T13:30:07;3.28;;;1.40;;
71303;SDS011;59091;47.446;19.148;2023-07-31T13:32:33;4.78;;;1.40;;
71303;SDS011;59091;47.446;19.148;2023-07-31T13:34:59;4.57;;;1.48;;
71303;SDS011;59091;47.446;19.148;2023-07-31T13:37:24;5.28;;;1.58;;
71303;SDS011;59091;47.446;19.148;2023-07-31T13:39:50;7.35;;;1.42;;
71303;SDS011;59091;47.446;19.148;2023-07-31T13:42:15;5.68;;;1.67;;
71303;SDS011;59091;47.446;19.148;2023-07-31T13:44:41;2.03;;;1.30;;
71303;SDS011;59091;47.446;19.148;2023-07-31T13:47:07;1.40;;;1.30;;
71303;SDS011;59091;47.446;19.148;2023-07-31T13:49:34;1.92;;;1.10;;
71303;SDS011;59091;47.446;19.148;2023-07-31T13:52:00;1.33;;;1.20;;
71303;SDS011;59091;47.446;19.148;2023-07-31T13:54:26;3.45;;;1.35;;
71303;SDS011;59091;47.446;19.148;2023-07-31T13:56:52;3.20;;;1.45;;
71303;SDS011;59091;47.446;19.148;2023-07-31T13:59:18;2.17;;;1.25;;
71303;SDS011;59091;47.446;19.148;2023-07-31T14:01:44;3.13;;;1.38;;
71303;SDS011;59091;47.446;19.148;2023-07-31T14:04:09;2.50;;;1.40;;
71303;SDS011;59091;47.446;19.148;2023-07-31T14:06:35;3.90;;;1.23;;
71303;SDS011;59091;47.446;19.148;2023-07-31T14:09:01;8.45;;;1.60;;
71303;SDS011;59091;47.446;19.148;2023-07-31T14:11:27;3.80;;;1.48;;
71303;SDS011;59091;47.446;19.148;2023-07-31T14:13:53;3.30;;;1.42;;
71303;SDS011;59091;47.446;19.148;2023-07-31T14:16:18;5.55;;;1.40;;
71303;SDS011;59091;47.446;19.148;2023-07-31T14:18:44;2.92;;;1.40;;
71303;SDS011;59091;47.446;19.148;2023-07-31T14:21:11;3.97;;;1.40;;
71303;SDS011;59091;47.446;19.148;2023-07-31T14:23:36;4.50;;;1.40;;
71303;SDS011;59091;47.446;19.148;2023-07-31T14:26:02;2.85;;;1.00;;
71303;SDS011;59091;47.446;19.148;2023-07-31T14:28:27;2.97;;;1.30;;
71303;SDS011;59091;47.446;19.148;2023-07-31T14:30:53;5.13;;;1.30;;
71303;SDS011;59091;47.446;19.148;2023-07-31T14:33:18;3.22;;;1.20;;
71303;SDS011;59091;47.446;19.148;2023-07-31T14:35:43;2.28;;;1.30;;
71303;SDS011;59091;47.446;19.148;2023-07-31T14:38:09;2.30;;;1.40;;
71303;SDS011;59091;47.446;19.148;2023-07-31T14:40:35;2.92;;;1.40;;
71303;SDS011;59091;47.446;19.148;2023-07-31T14:43:01;2.97;;;1.20;;